Terminal Aerodrome Forecast
Issued by NWS

Home | Current Version | Previous Version | Graphics & Text | Print | Product List | Glossary On
Versions: 1 2 3 4 5 6 7 8 9 10 11 12 13 14 15 16
000
FTUS43 KICT 142348
TAFSLN
TAF
KSLN 142348Z 1500/1524 19006KT P6SM BKN250
     FM150300 22007KT P6SM VCSH BKN080
     FM150600 30007KT 4SM -SN SCT012 OVC025
      TEMPO 1506/1509 1SM -SN BR BKN012
     FM151300 36015G23KT P6SM OVC080=

USA.gov is the U.S. government's official web portal to all federal, state and local government web resources and services.